Time;durP1;ratioP1;P1;durP2;ratioP2;P2;SDS_P1;SDS_P2;PMS_P1;PMS_P2;Temp;Humidity;BMP_temperature;BMP_pressure;BME280_temperature;BME280_humidity;BME280_pressure;Samples;Min_cycle;Max_cycle;Signal;HPM_P1;HPM_P2
2021/04/25 00:00:12;;;;;;;9.10;5.03;;;;;;;5.95;53.63;96040.56;4987650;28;20172;-72
2021/04/25 00:02:37;;;;;;;8.07;3.97;;;;;;;5.95;53.67;96030.22;4976210;28;20211;-72
2021/04/25 00:05:04;;;;;;;6.60;5.20;;;;;;;5.90;53.50;96027.16;4958982;28;20614;-72
2021/04/25 00:07:29;;;;;;;5.67;3.93;;;;;;;5.88;53.44;96033.31;4991348;28;20346;-72
2021/04/25 00:09:55;;;;;;;6.43;4.00;;;;;;;5.87;53.87;96036.81;4976509;28;20208;-72
2021/04/25 00:12:20;;;;;;;5.40;3.90;;;;;;;5.84;54.02;96039.63;4976418;28;20183;-72
2021/04/25 00:14:45;;;;;;;7.13;4.03;;;;;;;5.80;54.20;96026.13;4974884;28;20177;-72
2021/04/25 00:17:11;;;;;;;7.30;4.63;;;;;;;5.79;54.79;96021.88;4991364;28;20204;-71
2021/04/25 00:19:36;;;;;;;7.23;4.57;;;;;;;5.78;54.25;96016.84;4958901;28;20176;-72
2021/04/25 00:22:01;;;;;;;7.00;4.27;;;;;;;5.69;54.56;96018.31;4958885;28;20173;-72
2021/04/25 00:24:27;;;;;;;7.97;4.60;;;;;;;5.68;54.39;96026.97;4958768;28;20185;-72
2021/04/25 00:26:52;;;;;;;7.73;4.40;;;;;;;5.66;55.04;96019.34;4976053;28;20259;-72
2021/04/25 00:29:17;;;;;;;6.73;4.20;;;;;;;5.66;54.77;96016.78;4975992;28;20192;-72
2021/04/25 00:31:42;;;;;;;6.17;3.73;;;;;;;5.72;54.86;96019.84;4958204;28;20189;-72
2021/04/25 00:34:08;;;;;;;7.10;4.33;;;;;;;5.71;55.09;96018.19;4976069;28;20180;-72
2021/04/25 00:36:33;;;;;;;5.93;4.33;;;;;;;5.69;55.03;96006.25;4958346;28;20209;-71
2021/04/25 00:38:59;;;;;;;7.53;4.47;;;;;;;5.63;54.87;96009.25;4975952;28;20542;-72
2021/04/25 00:41:24;;;;;;;7.80;4.47;;;;;;;5.58;55.18;96011.31;4958823;28;20205;-72
2021/04/25 00:43:50;;;;;;;7.63;4.43;;;;;;;5.61;55.21;96010.28;4958662;28;20232;-72
2021/04/25 00:46:15;;;;;;;8.00;4.57;;;;;;;5.57;55.26;96003.72;4958016;28;20208;-72
2021/04/25 00:48:40;;;;;;;7.63;4.07;;;;;;;5.54;55.76;96006.47;4958539;28;20238;-73
2021/04/25 00:51:08;;;;;;;7.50;4.10;;;;;;;5.56;55.80;96002.84;4990729;28;20203;-73
2021/04/25 00:53:34;;;;;;;9.67;4.87;;;;;;;5.54;55.88;96009.06;4975569;28;20193;-73
2021/04/25 00:56:00;;;;;;;5.60;3.97;;;;;;;5.49;55.85;96000.84;4974116;28;20569;-73
2021/04/25 00:58:25;;;;;;;8.07;5.33;;;;;;;5.44;56.03;96008.03;4975675;28;20191;-74
2021/04/25 01:00:50;;;;;;;5.23;3.80;;;;;;;5.44;56.21;95997.75;4974287;28;20636;-71
2021/04/25 01:03:22;;;;;;;8.53;4.53;;;;;;;5.44;55.92;95997.75;4958185;28;20184;-71
2021/04/25 01:05:48;;;;;;;6.10;3.83;;;;;;;5.36;56.00;96003.41;4973597;28;20201;-73
2021/04/25 01:08:13;;;;;;;6.87;4.23;;;;;;;5.34;56.42;95994.97;4974370;28;20211;-73
2021/04/25 01:10:39;;;;;;;7.83;4.07;;;;;;;5.30;56.08;95994.38;4975391;28;20663;-73
2021/04/25 01:13:04;;;;;;;8.07;4.23;;;;;;;5.28;56.35;95991.06;4973395;28;20185;-71
2021/04/25 01:15:29;;;;;;;8.27;4.33;;;;;;;5.24;56.23;95991.38;4974980;28;20203;-73
2021/04/25 01:17:55;;;;;;;6.33;4.33;;;;;;;5.23;56.82;95998.28;4974154;28;20207;-73
2021/04/25 01:20:21;;;;;;;7.27;4.47;;;;;;;5.19;56.80;95999.41;4990215;28;20594;-71
2021/04/25 01:22:46;;;;;;;7.23;4.60;;;;;;;5.16;56.26;95998.78;4975150;28;20195;-71
2021/04/25 01:25:14;;;;;;;6.97;3.87;;;;;;;5.06;56.84;96008.88;4973688;28;20200;-72
2021/04/25 01:27:40;;;;;;;4.67;3.83;;;;;;;5.03;56.98;96009.06;4973767;28;20236;-72
2021/04/25 01:30:07;;;;;;;8.47;4.23;;;;;;;4.98;57.28;96011.16;4973721;28;20185;-71
2021/04/25 01:32:34;;;;;;;8.80;4.63;;;;;;;4.97;57.27;96014.66;4973312;28;20180;-72
2021/04/25 01:34:59;;;;;;;10.17;4.30;;;;;;;4.97;56.98;96014.66;4957221;28;20207;-72
2021/04/25 01:37:25;;;;;;;7.73;4.23;;;;;;;4.94;57.53;96019.97;4973591;28;20180;-72
2021/04/25 01:39:51;;;;;;;6.27;4.43;;;;;;;4.90;57.54;96021.13;4974900;28;20184;-72
2021/04/25 01:42:16;;;;;;;8.67;4.30;;;;;;;4.82;58.11;96019.06;4974754;28;20181;-72
2021/04/25 01:44:41;;;;;;;9.03;4.30;;;;;;;4.79;58.04;96025.25;4974423;28;20184;-72
2021/04/25 01:47:07;;;;;;;6.77;4.23;;;;;;;4.73;58.75;96020.47;4974651;28;20224;-72
2021/04/25 01:49:32;;;;;;;7.97;4.40;;;;;;;4.69;59.08;96019.03;4973374;28;20644;-72
2021/04/25 01:51:57;;;;;;;6.97;4.70;;;;;;;4.66;58.96;96008.13;4974636;28;20188;-72
2021/04/25 01:54:23;;;;;;;7.67;4.40;;;;;;;4.64;59.03;96008.22;4973010;28;20617;-72
2021/04/25 01:56:48;;;;;;;7.13;4.87;;;;;;;4.63;58.73;96006.56;4973079;28;20705;-72
2021/04/25 01:59:13;;;;;;;8.80;4.83;;;;;;;4.60;58.86;96008.53;4973275;28;20590;-73
2021/04/25 02:01:39;;;;;;;7.57;4.57;;;;;;;4.59;59.38;96010.25;4974504;28;20175;-74
2021/04/25 02:04:04;;;;;;;9.87;5.13;;;;;;;4.59;59.42;96015.41;4957193;28;20194;-73
2021/04/25 02:06:30;;;;;;;6.07;4.73;;;;;;;4.56;59.05;96010.47;4972856;28;20730;-73
2021/04/25 02:08:55;;;;;;;8.23;4.90;;;;;;;4.53;59.20;96011.50;4973190;28;20187;-73
2021/04/25 02:11:20;;;;;;;7.17;4.20;;;;;;;4.49;59.44;96014.34;4973001;28;20188;-74
2021/04/25 02:13:46;;;;;;;6.33;4.10;;;;;;;4.44;59.44;95990.69;4973254;28;20180;-73
2021/04/25 02:16:12;;;;;;;7.57;4.60;;;;;;;4.40;59.43;96009.81;4973869;28;20196;-73
2021/04/25 02:18:38;;;;;;;7.97;4.90;;;;;;;4.34;59.92;96007.66;4974131;28;20233;-72
2021/04/25 02:21:03;;;;;;;8.90;4.60;;;;;;;4.28;60.18;96008.03;4972882;28;20214;-73
2021/04/25 02:23:28;;;;;;;6.80;4.20;;;;;;;4.21;60.70;96005.84;4972855;28;20652;-73
2021/04/25 02:25:54;;;;;;;6.80;5.10;;;;;;;4.18;60.71;96003.47;4971380;28;20220;-73
2021/04/25 02:28:19;;;;;;;9.23;4.43;;;;;;;4.20;60.56;95993.09;4973904;28;20229;-73
2021/04/25 02:30:45;;;;;;;7.40;4.57;;;;;;;4.19;60.60;95992.25;4972718;28;20177;-73
2021/04/25 02:33:12;;;;;;;10.70;4.87;;;;;;;4.20;60.88;95982.81;4973516;28;20678;-73
2021/04/25 02:35:37;;;;;;;8.17;4.70;;;;;;;4.19;60.78;95984.56;4972401;28;20201;-73
2021/04/25 02:38:03;;;;;;;8.10;5.07;;;;;;;4.22;60.43;95980.94;4956353;28;20312;-73
2021/04/25 02:40:31;;;;;;;8.43;4.87;;;;;;;4.20;60.46;95975.91;4972594;28;20191;-72
2021/04/25 02:42:57;;;;;;;7.13;4.50;;;;;;;4.19;60.41;95981.97;4956515;28;20177;-73
2021/04/25 02:45:23;;;;;;;6.93;4.33;;;;;;;4.18;60.72;95974.38;4956179;28;20684;-73
2021/04/25 02:47:52;;;;;;;7.60;4.50;;;;;;;4.16;60.87;95984.75;4956109;28;20208;-73
2021/04/25 02:50:19;;;;;;;8.17;4.50;;;;;;;4.13;60.43;95976.41;4956191;28;20187;-73
2021/04/25 02:52:44;;;;;;;8.73;4.80;;;;;;;4.09;60.56;95977.53;4973466;28;20637;-73
2021/04/25 02:55:10;;;;;;;8.07;4.67;;;;;;;4.03;60.50;95976.16;4972053;28;20211;-73
2021/04/25 02:57:35;;;;;;;10.87;4.90;;;;;;;4.00;61.14;95981.50;4973448;28;20231;-73
2021/04/25 03:00:02;;;;;;;9.93;4.43;;;;;;;3.94;61.51;95974.19;4973472;28;20184;-72
2021/04/25 03:02:27;;;;;;;10.10;4.63;;;;;;;3.90;60.96;95968.41;4973362;28;20643;-73
2021/04/25 03:04:53;;;;;;;6.77;4.97;;;;;;;3.86;61.58;95963.56;4972989;28;20203;-73
2021/04/25 03:07:18;;;;;;;7.43;4.60;;;;;;;3.84;61.71;95970.53;4971918;28;20272;-73
2021/04/25 03:09:44;;;;;;;8.90;4.80;;;;;;;3.78;62.15;95963.22;4972130;28;20190;-73
2021/04/25 03:12:09;;;;;;;9.70;4.43;;;;;;;3.70;62.31;95974.78;4972148;28;20668;-73
2021/04/25 03:14:34;;;;;;;8.57;4.47;;;;;;;3.65;62.82;95970.88;4971741;28;20181;-73
2021/04/25 03:17:00;;;;;;;10.10;5.23;;;;;;;3.62;62.88;95963.34;4971992;28;20195;-73
2021/04/25 03:19:25;;;;;;;9.33;5.53;;;;;;;3.61;62.55;95959.94;4971889;28;20195;-73
2021/04/25 03:21:50;;;;;;;10.63;4.87;;;;;;;3.52;63.27;95968.22;4971807;28;20184;-73
2021/04/25 03:24:16;;;;;;;11.10;4.90;;;;;;;3.48;63.12;95969.34;4972907;28;20218;-73
2021/04/25 03:26:41;;;;;;;7.93;4.73;;;;;;;3.52;62.97;95968.22;4971596;28;20214;-73
2021/04/25 03:29:07;;;;;;;6.67;4.87;;;;;;;3.47;63.59;95962.56;4973044;28;20638;-73
2021/04/25 03:31:32;;;;;;;6.30;4.50;;;;;;;3.42;63.66;95967.13;4972999;28;20185;-73
2021/04/25 03:33:57;;;;;;;7.83;4.50;;;;;;;3.42;63.71;95964.56;4971317;28;20695;-72
2021/04/25 03:36:23;;;;;;;8.43;5.33;;;;;;;3.42;63.67;95964.56;4971015;28;20197;-73
2021/04/25 03:38:48;;;;;;;6.43;4.93;;;;;;;3.39;63.74;95965.59;4971637;28;20180;-73
2021/04/25 03:41:14;;;;;;;7.00;4.57;;;;;;;3.37;63.71;95969.19;4971618;28;20184;-73
2021/04/25 03:43:39;;;;;;;7.53;4.73;;;;;;;3.35;63.93;95968.41;4971666;28;20180;-73
2021/04/25 03:46:04;;;;;;;7.43;4.77;;;;;;;3.36;63.35;95975.22;4971083;28;20278;-72
2021/04/25 03:48:30;;;;;;;8.93;4.97;;;;;;;3.39;63.70;95972.47;4971422;28;20172;-73
2021/04/25 03:50:55;;;;;;;7.50;5.30;;;;;;;3.32;63.83;95982.28;4971600;28;20180;-73
2021/04/25 03:53:20;;;;;;;8.67;5.10;;;;;;;3.29;63.61;95971.38;4972807;28;20209;-73
2021/04/25 03:55:45;;;;;;;7.03;4.57;;;;;;;3.29;63.86;95966.25;4972492;28;20214;-73
2021/04/25 03:58:11;;;;;;;9.23;4.93;;;;;;;3.22;63.77;95980.38;4971478;28;20192;-73
2021/04/25 04:00:36;;;;;;;9.73;5.00;;;;;;;3.19;64.07;95978.81;4971382;28;20207;-72
2021/04/25 04:03:01;;;;;;;9.50;5.23;;;;;;;3.23;64.17;95985.41;4972568;28;20675;-73
2021/04/25 04:05:27;;;;;;;9.97;5.20;;;;;;;3.22;65.36;95973.47;4971204;28;20680;-71
2021/04/25 04:07:52;;;;;;;7.93;5.37;;;;;;;3.21;63.68;95973.59;4972523;28;20239;-73
2021/04/25 04:10:18;;;;;;;10.30;5.67;;;;;;;3.18;63.90;95973.75;4971449;28;20184;-71
2021/04/25 04:12:43;;;;;;;10.53;5.30;;;;;;;3.17;63.91;95977.22;4955198;28;20320;-73
2021/04/25 04:15:09;;;;;;;6.77;5.00;;;;;;;3.16;64.34;95975.59;4972380;28;20214;-74
2021/04/25 04:17:34;;;;;;;10.97;4.80;;;;;;;3.16;64.06;95981.53;4971220;28;20204;-73
2021/04/25 04:19:59;;;;;;;8.20;4.93;;;;;;;3.17;64.11;95974.66;4987584;28;20196;-73
2021/04/25 04:22:25;;;;;;;9.60;5.73;;;;;;;3.09;64.64;95975.97;4971479;28;20224;-71
2021/04/25 04:24:50;;;;;;;9.20;5.07;;;;;;;3.09;63.91;95988.81;4970939;28;20177;-74
2021/04/25 04:27:16;;;;;;;9.77;5.93;;;;;;;3.08;64.74;95992.25;4972478;28;20203;-73
2021/04/25 04:29:41;;;;;;;10.63;6.80;;;;;;;3.03;64.81;95984.03;4971260;28;20224;-74
2021/04/25 04:32:06;;;;;;;11.30;7.60;;;;;;;3.06;64.88;95988.97;4986702;28;20177;-72
2021/04/25 04:34:32;;;;;;;13.73;6.73;;;;;;;3.03;64.90;95996.03;4970910;28;20255;-72
2021/04/25 04:36:58;;;;;;;12.20;6.63;;;;;;;3.09;64.48;96006.78;4971249;28;20173;-72
2021/04/25 04:39:23;;;;;;;8.77;6.77;;;;;;;3.22;65.05;96011.16;4971244;28;20256;-73
2021/04/25 04:41:50;;;;;;;8.57;6.20;;;;;;;3.27;65.10;96002.28;4971166;28;20205;-72
2021/04/25 04:44:15;;;;;;;12.50;7.03;;;;;;;3.32;64.65;96012.25;4970922;28;20176;-71
2021/04/25 04:46:41;;;;;;;13.13;8.93;;;;;;;3.38;64.38;96010.16;4954674;28;20676;-72
2021/04/25 04:49:06;;;;;;;12.07;7.83;;;;;;;3.45;63.38;96010.63;4973474;28;20177;-72
2021/04/25 04:51:31;;;;;;;13.07;8.00;;;;;;;3.57;63.60;96012.44;4974619;28;20174;-72
2021/04/25 04:53:56;;;;;;;8.23;6.47;;;;;;;3.67;63.03;96012.69;4974528;28;20203;-72
2021/04/25 04:56:22;;;;;;;13.40;6.13;;;;;;;3.70;62.65;96010.75;4975375;28;20279;-72
2021/04/25 04:58:47;;;;;;;9.17;5.73;;;;;;;3.74;63.06;96008.81;4975454;28;20177;-73
2021/04/25 05:01:12;;;;;;;10.50;5.43;;;;;;;4.01;62.47;95998.56;4974476;28;20260;-72
2021/04/25 05:03:38;;;;;;;7.17;5.20;;;;;;;4.82;60.61;96001.88;4975617;28;20663;-74
2021/04/25 05:06:03;;;;;;;7.47;5.03;;;;;;;6.12;56.41;96005.03;4990046;28;20303;-74
2021/04/25 05:08:28;;;;;;;7.77;4.70;;;;;;;7.14;53.85;96017.31;4974232;28;20271;-71
2021/04/25 05:10:54;;;;;;;10.07;5.47;;;;;;;7.51;52.38;96010.19;4975367;28;20180;-72
2021/04/25 05:13:20;;;;;;;9.77;5.53;;;;;;;6.77;53.97;96017.47;4975163;28;20227;-74
2021/04/25 05:15:45;;;;;;;8.50;5.03;;;;;;;6.15;55.40;96012.53;4973611;28;20208;-71
2021/04/25 05:18:12;;;;;;;9.10;5.23;;;;;;;5.89;56.56;96015.16;4975324;28;20180;-73
2021/04/25 05:20:38;;;;;;;7.43;5.43;;;;;;;5.74;57.33;96016.22;4957964;28;20192;-73
2021/04/25 05:23:03;;;;;;;7.00;5.40;;;;;;;5.88;56.67;96017.84;4974066;28;20173;-73
2021/04/25 05:25:28;;;;;;;7.33;5.07;;;;;;;5.80;57.08;96013.22;4973606;28;20544;-73
2021/04/25 05:27:54;;;;;;;10.40;5.20;;;;;;;5.79;57.34;96011.59;4974935;28;20212;-73
2021/04/25 05:30:20;;;;;;;8.87;5.93;;;;;;;5.61;57.73;96016.25;4957692;28;20641;-73
2021/04/25 05:32:45;;;;;;;7.87;5.57;;;;;;;5.59;58.33;96020.69;4974525;28;20561;-71
2021/04/25 05:35:12;;;;;;;7.43;5.63;;;;;;;5.65;57.92;96024.59;4974735;28;20197;-72
2021/04/25 05:37:37;;;;;;;7.20;5.03;;;;;;;5.55;58.41;96026.16;4957595;28;20280;-72
2021/04/25 05:40:05;;;;;;;8.07;5.60;;;;;;;5.50;58.92;96028.25;4973729;28;20271;-72
2021/04/25 05:42:31;;;;;;;9.33;5.03;;;;;;;5.60;58.27;96029.25;4957431;28;20181;-73
2021/04/25 05:44:56;;;;;;;9.23;5.37;;;;;;;5.61;58.57;96030.91;4974351;28;20604;-73
2021/04/25 05:47:21;;;;;;;9.60;5.70;;;;;;;5.54;58.61;96030.47;4974250;28;20200;-73
2021/04/25 05:49:47;;;;;;;13.37;6.80;;;;;;;5.34;59.65;96031.84;4973531;28;20180;-73
2021/04/25 05:52:13;;;;;;;10.20;6.70;;;;;;;5.27;60.17;96035.75;4973425;28;20268;-72
2021/04/25 05:54:38;;;;;;;11.53;7.57;;;;;;;5.37;59.75;96039.34;4973069;28;20716;-72
2021/04/25 05:57:06;;;;;;;9.03;6.73;;;;;;;5.17;60.47;96041.63;4974673;28;20690;-74
2021/04/25 05:59:31;;;;;;;11.53;6.57;;;;;;;5.07;60.64;96037.09;4974103;28;20235;-73
2021/04/25 06:01:56;;;;;;;12.27;6.80;;;;;;;5.31;59.69;96042.38;4957202;28;20595;-73
2021/04/25 06:04:21;;;;;;;8.07;5.73;;;;;;;5.04;60.72;96051.94;4974189;28;20224;-73
2021/04/25 06:06:47;;;;;;;13.47;7.03;;;;;;;5.02;61.00;96058.91;4973950;28;20208;-73
2021/04/25 06:09:12;;;;;;;10.67;6.87;;;;;;;5.07;60.73;96047.41;4989353;28;20200;-75
2021/04/25 06:11:37;;;;;;;12.00;6.50;;;;;;;5.15;60.54;96056.38;4974198;28;20191;-74
2021/04/25 06:14:05;;;;;;;14.13;7.03;;;;;;;5.12;60.61;96054.78;4972532;28;20224;-76
2021/04/25 06:16:30;;;;;;;12.60;7.20;;;;;;;5.09;61.18;96055.84;4972889;28;20192;-73
2021/04/25 06:18:56;;;;;;;8.87;6.57;;;;;;;5.05;61.30;96054.41;4975002;28;20264;-73
2021/04/25 06:21:21;;;;;;;10.93;5.90;;;;;;;5.30;60.83;96053.59;4973552;28;20176;-81
2021/04/25 06:23:47;;;;;;;12.77;7.23;;;;;;;5.47;60.36;96064.50;4973696;28;20188;-73
2021/04/25 06:26:12;;;;;;;13.37;7.10;;;;;;;5.48;59.55;96067.00;4973406;28;20207;-74
2021/04/25 06:28:37;;;;;;;11.23;6.50;;;;;;;5.31;60.62;96060.41;4972272;28;20240;-74
2021/04/25 06:31:03;;;;;;;12.63;7.20;;;;;;;5.93;59.60;96063.03;4973953;28;20180;-73
2021/04/25 06:33:28;;;;;;;12.03;6.93;;;;;;;7.18;54.93;96067.84;4988630;28;20539;-74
2021/04/25 06:35:53;;;;;;;12.43;7.60;;;;;;;7.57;53.59;96061.41;4953698;28;20291;-74
2021/04/25 06:38:19;;;;;;;13.57;6.80;;;;;;;8.77;50.34;96067.50;4978672;28;20191;-74
2021/04/25 06:40:44;;;;;;;9.80;6.87;;;;;;;10.68;44.67;96071.25;4987472;28;20219;-74
2021/04/25 06:43:09;;;;;;;10.43;6.10;;;;;;;11.84;41.27;96073.78;4956294;28;20255;-73
2021/04/25 06:45:35;;;;;;;11.40;6.97;;;;;;;11.15;43.35;96072.25;4973238;28;20204;-74
2021/04/25 06:48:00;;;;;;;8.60;6.70;;;;;;;12.54;39.76;96072.31;4988456;28;20216;-74
2021/04/25 06:50:26;;;;;;;14.13;7.33;;;;;;;12.13;40.19;96073.66;4988546;28;20177;-73
2021/04/25 06:52:51;;;;;;;9.43;6.33;;;;;;;11.79;41.15;96071.56;4988410;28;20276;-72
2021/04/25 06:55:19;;;;;;;10.83;6.50;;;;;;;12.28;40.09;96081.78;4988104;28;20223;-74
2021/04/25 06:57:46;;;;;;;8.87;6.67;;;;;;;11.89;41.08;96067.16;4988152;28;20621;-74
2021/04/25 07:00:13;;;;;;;9.07;6.70;;;;;;;11.06;42.60;96073.91;4956127;28;20176;-72
2021/04/25 07:02:38;;;;;;;10.77;7.30;;;;;;;10.63;43.74;96069.09;4973163;28;20180;-73
2021/04/25 07:05:05;;;;;;;10.30;6.93;;;;;;;9.63;46.01;96076.81;4987985;28;20211;-74
2021/04/25 07:07:31;;;;;;;12.10;7.40;;;;;;;9.54;46.76;96072.41;4988732;28;20203;-74
2021/04/25 07:09:56;;;;;;;10.50;7.03;;;;;;;9.46;47.07;96074.00;4988104;28;20647;-74
2021/04/25 07:12:22;;;;;;;10.07;6.97;;;;;;;9.54;47.03;96077.59;4972618;28;20180;-75
2021/04/25 07:14:47;;;;;;;12.23;6.97;;;;;;;8.59;49.66;96076.75;4956344;28;20674;-75
2021/04/25 07:17:12;;;;;;;11.50;7.53;;;;;;;8.12;51.90;96076.09;4971692;28;20201;-75
2021/04/25 07:19:38;;;;;;;12.47;7.57;;;;;;;7.73;52.86;96084.34;4973228;28;20185;-75
2021/04/25 07:22:03;;;;;;;12.63;7.17;;;;;;;7.75;52.71;96075.53;4987974;28;20219;-75
2021/04/25 07:24:29;;;;;;;10.53;7.17;;;;;;;7.46;54.18;96076.94;4987648;28;20181;-74
2021/04/25 07:26:54;;;;;;;12.93;7.03;;;;;;;7.47;54.48;96074.22;4988000;28;20208;-73
2021/04/25 07:29:19;;;;;;;11.00;7.47;;;;;;;7.73;52.90;96074.84;4987927;28;20184;-74
2021/04/25 07:31:45;;;;;;;11.37;7.13;;;;;;;7.94;53.05;96072.34;4971660;28;20180;-74
2021/04/25 07:34:10;;;;;;;13.87;7.20;;;;;;;8.37;52.22;96071.63;4987885;28;20177;-74
2021/04/25 07:36:36;;;;;;;13.83;7.83;;;;;;;8.18;52.45;96070.44;4972211;28;20251;-74
2021/04/25 07:39:03;;;;;;;12.40;7.70;;;;;;;7.69;53.27;96072.63;4955445;28;20177;-74
2021/04/25 07:41:28;;;;;;;10.57;7.57;;;;;;;7.75;53.96;96072.13;4987771;28;20184;-74
2021/04/25 07:43:54;;;;;;;13.17;7.60;;;;;;;7.62;54.31;96073.06;4985589;28;20314;-74
2021/04/25 07:46:20;;;;;;;16.53;9.07;;;;;;;8.04;53.04;96078.47;4991756;28;20550;-73
2021/04/25 07:48:45;;;;;;;15.17;9.13;;;;;;;7.93;53.10;96075.88;4990857;28;20278;-74
2021/04/25 07:51:11;;;;;;;14.43;8.27;;;;;;;8.01;53.69;96070.13;4990829;28;20259;-75
2021/04/25 07:53:36;;;;;;;14.23;9.13;;;;;;;8.00;53.41;96076.22;4990709;28;20176;-74
2021/04/25 07:56:02;;;;;;;14.53;9.40;;;;;;;8.21;52.92;96066.78;4990587;28;20257;-74
2021/04/25 07:58:27;;;;;;;12.10;7.73;;;;;;;8.55;51.80;96070.16;4990340;28;20648;-74
2021/04/25 08:00:53;;;;;;;14.37;8.90;;;;;;;8.43;52.42;96069.38;4986317;28;20599;-74
2021/04/25 08:03:18;;;;;;;15.63;9.47;;;;;;;8.07;53.73;96067.88;4994082;28;20283;-75
2021/04/25 08:05:43;;;;;;;12.47;8.77;;;;;;;7.91;54.11;96070.00;4993849;28;20199;-74
2021/04/25 08:08:09;;;;;;;16.03;9.63;;;;;;;7.93;54.17;96065.53;4993797;28;20211;-75
2021/04/25 08:10:34;;;;;;;13.00;9.50;;;;;;;7.81;54.72;96069.06;5010277;28;20274;-75
2021/04/25 08:12:59;;;;;;;16.77;10.07;;;;;;;7.99;54.07;96070.25;4993977;28;20218;-73
2021/04/25 08:15:25;;;;;;;15.53;9.97;;;;;;;7.56;55.61;96063.19;4993654;28;20199;-74
2021/04/25 08:17:51;;;;;;;13.30;9.10;;;;;;;7.88;55.09;96071.06;4994007;28;20229;-74
2021/04/25 08:20:17;;;;;;;17.73;9.80;;;;;;;8.03;53.00;96074.22;4994049;28;20198;-74
2021/04/25 08:22:42;;;;;;;14.47;9.90;;;;;;;8.11;53.23;96071.03;4996084;28;20179;-74
2021/04/25 08:25:08;;;;;;;17.93;11.03;;;;;;;8.12;52.78;96068.31;4997443;28;20663;-75
2021/04/25 08:27:34;;;;;;;16.70;10.03;;;;;;;8.69;52.17;96072.47;5013569;28;20215;-75
2021/04/25 08:29:59;;;;;;;16.77;10.83;;;;;;;8.54;51.17;96078.88;4997825;28;20274;-75
2021/04/25 08:32:24;;;;;;;18.90;10.70;;;;;;;8.86;51.42;96081.47;4997626;28;20186;-74
2021/04/25 08:34:49;;;;;;;17.10;10.47;;;;;;;8.37;51.58;96085.38;5014877;28;20183;-74
2021/04/25 08:37:15;;;;;;;18.00;11.53;;;;;;;8.48;51.90;96087.09;4997580;28;20174;-73
2021/04/25 08:39:40;;;;;;;14.30;10.80;;;;;;;8.61;51.25;96087.78;4997512;28;20560;-73
2021/04/25 08:42:05;;;;;;;15.57;10.47;;;;;;;8.83;50.76;96084.28;5015009;28;20837;-74
2021/04/25 08:44:32;;;;;;;20.93;10.37;;;;;;;8.71;50.84;96082.69;5014627;28;20270;-74
2021/04/25 08:46:58;;;;;;;16.73;10.17;;;;;;;8.49;52.06;96088.78;4997161;28;20250;-74
2021/04/25 08:49:26;;;;;;;16.87;10.53;;;;;;;8.82;50.31;96089.59;5013431;28;20203;-75
2021/04/25 08:51:52;;;;;;;13.83;10.47;;;;;;;8.82;50.84;96089.59;4997126;28;20222;-74
2021/04/25 08:54:27;;;;;;;14.40;9.40;;;;;;;9.14;49.65;96082.63;4996904;28;20262;-73
2021/04/25 08:56:53;;;;;;;14.77;9.87;;;;;;;9.30;49.88;96084.81;4997069;28;20210;-74
2021/04/25 08:59:19;;;;;;;16.13;11.17;;;;;;;9.65;47.98;96084.47;4996650;28;20196;-74
2021/04/25 09:01:44;;;;;;;15.87;10.00;;;;;;;9.52;47.82;96084.66;5014762;28;20542;-75
2021/04/25 09:04:10;;;;;;;13.63;9.23;;;;;;;9.25;47.83;96087.75;4996954;28;20587;-75
2021/04/25 09:06:35;;;;;;;17.93;10.13;;;;;;;9.16;48.98;96083.31;4996665;28;20214;-75
2021/04/25 09:09:04;;;;;;;13.87;9.47;;;;;;;9.82;49.10;96081.28;4996672;28;20274;-75
2021/04/25 09:11:32;;;;;;;16.27;10.17;;;;;;;10.08;47.65;96083.41;4997231;28;20183;-74
2021/04/25 09:14:14;;;;;;;18.07;10.43;;;;;;;9.86;47.76;96079.22;5014435;28;20618;-75
2021/04/25 09:16:39;;;;;;;12.93;9.20;;;;;;;9.89;47.95;96079.81;4996729;28;20573;-74
2021/04/25 09:19:05;;;;;;;16.17;9.73;;;;;;;9.87;47.61;96076.50;4996705;28;20183;-74
2021/04/25 09:21:30;;;;;;;14.10;9.43;;;;;;;9.86;47.65;96082.63;4996643;28;20187;-75
2021/04/25 09:23:55;;;;;;;17.77;10.50;;;;;;;9.87;48.47;96073.09;4996411;28;20218;-73
2021/04/25 09:26:21;;;;;;;14.93;10.47;;;;;;;10.03;48.45;96072.59;4996007;28;20222;-74
2021/04/25 09:29:00;;;;;;;14.87;9.90;;;;;;;9.56;47.85;96080.88;5012426;28;20286;-73
2021/04/25 09:31:25;;;;;;;14.03;9.73;;;;;;;9.34;47.89;96074.03;4996532;28;20179;-74
2021/04/25 09:33:51;;;;;;;14.27;9.10;;;;;;;9.64;47.13;96077.63;5013123;28;20183;-74
2021/04/25 09:36:21;;;;;;;14.97;8.77;;;;;;;9.74;45.85;96077.69;5013587;28;20195;-74
2021/04/25 09:38:48;;;;;;;13.83;8.37;;;;;;;9.91;46.17;96077.06;4996116;28;20642;-74
2021/04/25 09:41:27;;;;;;;14.70;8.13;;;;;;;9.74;45.43;96088.06;4995547;28;20183;-74
2021/04/25 09:43:53;;;;;;;14.67;8.20;;;;;;;9.65;44.90;96082.69;4995770;28;20210;-74
2021/04/25 09:46:18;;;;;;;9.47;7.50;;;;;;;9.71;45.54;96073.56;4995252;28;20238;-73
2021/04/25 09:48:43;;;;;;;12.50;7.93;;;;;;;10.02;43.70;96064.00;4979129;28;20195;-74
2021/04/25 09:51:10;;;;;;;12.00;7.83;;;;;;;10.01;45.13;96069.31;5013373;28;20282;-74
2021/04/25 09:53:37;;;;;;;13.97;8.93;;;;;;;9.78;44.57;96064.31;4995767;28;20171;-74
2021/04/25 09:56:03;;;;;;;10.60;7.83;;;;;;;10.21;45.15;96060.63;4995324;28;20689;-73
2021/04/25 09:58:28;;;;;;;11.07;7.93;;;;;;;10.09;44.79;96059.94;5013166;28;20194;-73
2021/04/25 10:00:54;;;;;;;12.87;8.63;;;;;;;10.28;44.47;96059.19;5013151;28;20183;-74
2021/04/25 10:03:20;;;;;;;14.63;7.73;;;;;;;10.65;44.06;96063.75;4995456;28;20183;-73
2021/04/25 10:05:57;;;;;;;17.63;9.13;;;;;;;10.33;45.00;96058.78;4995371;28;20221;-73
2021/04/25 10:08:30;;;;;;;12.00;8.83;;;;;;;10.69;44.18;96070.31;5013051;28;20194;-73
2021/04/25 10:10:55;;;;;;;10.97;8.03;;;;;;;10.54;43.42;96066.47;5012890;28;20207;-73
2021/04/25 10:13:21;;;;;;;10.57;8.27;;;;;;;10.55;42.58;96070.72;4995360;28;20257;-73
2021/04/25 10:15:46;;;;;;;10.90;7.93;;;;;;;10.24;42.63;96064.75;4994904;28;20203;-76
2021/04/25 10:18:12;;;;;;;10.77;7.37;;;;;;;10.25;42.50;96062.06;4978670;28;20215;-76
2021/04/25 10:20:37;;;;;;;12.53;7.40;;;;;;;10.23;42.27;96066.53;4995247;28;20184;-73
2021/04/25 10:23:03;;;;;;;9.37;6.70;;;;;;;10.23;39.87;96061.34;4994881;28;20203;-74
2021/04/25 10:25:36;;;;;;;8.07;6.63;;;;;;;10.13;40.50;96058.69;5011343;28;20203;-77
2021/04/25 10:28:06;;;;;;;12.10;7.47;;;;;;;10.35;43.66;96057.72;5012917;28;20215;-72
2021/04/25 10:30:36;;;;;;;14.27;8.50;;;;;;;10.52;44.00;96055.41;5012868;28;20190;-73
2021/04/25 10:33:02;;;;;;;14.67;8.93;;;;;;;10.81;43.36;96064.03;4995126;28;20237;-73
2021/04/25 10:35:33;;;;;;;12.10;7.67;;;;;;;10.69;41.35;96059.91;4994483;28;20373;-73
2021/04/25 10:37:59;;;;;;;11.87;8.73;;;;;;;10.63;41.88;96063.91;4995568;28;20606;-73
2021/04/25 10:40:36;;;;;;;13.80;7.00;;;;;;;10.92;41.97;96058.69;4994842;28;20183;-73
2021/04/25 10:43:07;;;;;;;10.57;7.00;;;;;;;10.77;41.01;96070.44;4995132;28;20175;-73
2021/04/25 10:45:35;;;;;;;13.43;7.63;;;;;;;10.94;40.97;96063.75;4993712;28;20206;-73
2021/04/25 10:48:24;;;;;;;11.70;8.00;;;;;;;11.09;40.35;96058.97;5012282;28;20205;-73
2021/04/25 10:51:04;;;;;;;9.30;6.63;;;;;;;11.27;41.40;96050.31;5012534;28;20257;-73
2021/04/25 10:53:33;;;;;;;15.20;10.03;;;;;;;11.68;40.27;96058.72;5011688;28;20182;-73
2021/04/25 10:56:13;;;;;;;8.27;6.33;;;;;;;11.15;38.46;96048.84;5010705;28;20202;-72
2021/04/25 10:58:46;;;;;;;9.53;7.03;;;;;;;11.18;40.52;96053.75;5012338;28;20265;-73
2021/04/25 11:01:38;;;;;;;9.43;6.37;;;;;;;11.27;40.92;96049.50;4994777;28;20270;-73
2021/04/25 11:04:03;;;;;;;14.00;7.43;;;;;;;11.20;41.17;96053.63;5010476;28;20191;-75
2021/04/25 11:06:29;;;;;;;9.57;6.63;;;;;;;11.03;42.75;96045.56;4994199;28;20218;-75
2021/04/25 11:08:55;;;;;;;7.77;6.07;;;;;;;11.04;41.06;96059.38;5012105;28;20187;-71
2021/04/25 11:11:38;;;;;;;8.43;6.30;;;;;;;11.19;40.27;96059.78;4994603;28;20175;-75
2021/04/25 11:14:04;;;;;;;8.90;6.83;;;;;;;10.90;40.32;96057.22;4994348;28;20181;-74
2021/04/25 11:16:31;;;;;;;10.23;6.20;;;;;;;11.11;40.02;96049.25;4994125;28;20562;-75
2021/04/25 11:19:05;;;;;;;9.77;6.80;;;;;;;11.37;40.15;96046.88;4994313;28;20183;-72
2021/04/25 11:24:16;;;;;;;10.03;5.83;;;;;;;11.31;38.09;96043.09;5011955;28;20266;-73
2021/04/25 11:26:44;;;;;;;12.83;7.00;;;;;;;11.44;38.68;96035.78;4994521;28;20585;-72
2021/04/25 11:29:43;;;;;;;24.30;13.40;;;;;;;11.91;36.46;96046.19;4994075;28;20183;-74
2021/04/25 11:32:23;;;;;;;27.47;16.07;;;;;;;11.42;36.95;96048.13;5011696;28;20175;-73
2021/04/25 11:35:08;;;;;;;13.27;8.53;;;;;;;11.61;35.97;96039.44;4993755;28;20171;-73